Terminal Aerodrome Forecast
Issued by NWS

Home | Current Version | Previous Version | Graphics & Text | Print | Product List | Glossary On
Versions: 1 2 3 4 5 6 7 8 9 10 11 12 13 14 15 16 17 18 19 20 21 22 23 24 25 26 27 28 29
000
FTUS43 KGRB 291500 AAB
TAFRHI
TAF AMD
KRHI 291547Z 2916/3012 21016G23KT P6SM -RASN BKN017 OVC022
      TEMPO 2916/2919 3SM -SN BR OVC014
     FM292200 28020G29KT P6SM BKN020
     FM300100 29010KT P6SM SCT050=

USA.gov is the U.S. government's official web portal to all federal, state and local government web resources and services.